Time;durP1;ratioP1;P1;durP2;ratioP2;P2;SDS_P1;SDS_P2;PMS_P1;PMS_P2;Temp;Humidity;BMP_temperature;BMP_pressure;BME280_temperature;BME280_humidity;BME280_pressure;Samples;Min_cycle;Max_cycle;Signal;HPM_P1;HPM_P2
2021/08/28 00:01:16;;;;;;;19.55;11.08;;;;;;;13.65;100.00;98965.01;1719571;83;21415;-68
2021/08/28 00:03:43;;;;;;;17.92;11.80;;;;;;;13.64;100.00;98962.59;1694929;83;20905;-69
2021/08/28 00:06:10;;;;;;;17.35;11.83;;;;;;;13.63;100.00;98963.69;1719624;83;21130;-68
2021/08/28 00:08:37;;;;;;;16.80;12.28;;;;;;;13.62;100.00;98958.85;1719588;83;21317;-68
2021/08/28 00:11:03;;;;;;;17.37;11.18;;;;;;;13.60;100.00;98950.24;1653024;83;20830;-68
2021/08/28 00:13:31;;;;;;;16.63;12.03;;;;;;;13.60;100.00;98938.11;1697193;83;20924;-68
2021/08/28 00:15:59;;;;;;;15.13;11.55;;;;;;;13.60;100.00;98935.97;1717391;83;22701;-68
2021/08/28 00:18:27;;;;;;;;;;;;;;;13.61;100.00;98932.16;1719828;83;20956;-68
2021/08/28 00:20:54;;;;;;;17.60;11.30;;;;;;;13.60;100.00;98938.66;1717216;83;20081;-68
2021/08/28 00:23:21;;;;;;;19.80;12.30;;;;;;;13.59;100.00;98921.66;1696814;83;20897;-68
2021/08/28 00:25:49;;;;;;;18.35;11.83;;;;;;;13.59;100.00;98917.61;1697292;83;24897;-68
2021/08/28 00:28:16;;;;;;;18.07;11.88;;;;;;;13.59;100.00;98916.81;1673564;83;39016;-68
2021/08/28 00:30:43;;;;;;;15.95;11.93;;;;;;;13.56;100.00;98926.84;1710409;83;21762;-68
2021/08/28 00:33:12;;;;;;;19.27;12.47;;;;;;;13.55;100.00;98938.69;1701688;84;20929;-68
2021/08/28 00:35:39;;;;;;;19.12;12.20;;;;;;;13.53;100.00;98941.70;1726862;83;20881;-68
2021/08/28 00:38:06;;;;;;;19.12;13.50;;;;;;;13.52;100.00;98949.51;1726789;83;20853;-68
2021/08/28 00:40:34;;;;;;;19.98;12.53;;;;;;;13.51;100.00;98946.57;1695999;83;20896;-68
2021/08/28 00:43:01;;;;;;;20.12;12.65;;;;;;;13.50;100.00;98940.38;1727147;83;21157;-68
2021/08/28 00:45:29;;;;;;;18.00;12.37;;;;;;;13.50;100.00;98936.89;1726989;83;20943;-68
2021/08/28 00:47:58;;;;;;;15.13;11.78;;;;;;;13.48;100.00;98943.91;1727173;83;25437;-68
2021/08/28 00:50:25;;;;;;;;;;;;;;;13.46;100.00;98947.43;1729392;83;20920;-68
2021/08/28 00:52:54;;;;;;;19.50;12.35;;;;;;;13.48;100.00;98953.34;1720285;83;20124;-68
2021/08/28 00:55:30;;;;;;;17.25;12.70;;;;;;;13.50;100.00;98954.41;1726452;82;21125;-68
2021/08/28 00:57:57;;;;;;;18.52;11.63;;;;;;;13.50;100.00;98948.47;1716960;83;20876;-68
2021/08/28 01:00:24;;;;;;;16.20;11.48;;;;;;;13.53;100.00;98943.05;1726866;83;20991;-68
2021/08/28 01:02:51;;;;;;;18.57;13.20;;;;;;;13.53;100.00;98934.16;1727002;83;20979;-68
2021/08/28 01:05:39;;;;;;;19.15;12.73;;;;;;;13.53;100.00;98935.51;1726862;83;21438;-68
2021/08/28 01:08:30;;;;;;;;;;;;;;;13.50;100.00;98929.59;1728762;82;21115;-68
2021/08/28 01:11:25;;;;;;;24.05;13.95;;;;;;;13.53;100.00;98927.42;1694252;83;20469;-67
2021/08/28 01:13:58;;;;;;;15.75;11.18;;;;;;;13.51;100.00;98932.53;1701761;84;20893;-67
2021/08/28 01:16:24;;;;;;;17.35;12.25;;;;;;;13.52;100.00;98937.38;1701266;84;21329;-68
2021/08/28 01:18:53;;;;;;;16.02;10.95;;;;;;;13.55;100.00;98936.00;1726716;83;20980;-68
2021/08/28 01:21:35;;;;;;;16.93;12.15;;;;;;;13.56;100.00;98943.02;1726909;83;21726;-68
2021/08/28 01:32:38;;;;;;;24.65;12.50;;;;;;;13.49;100.00;98973.80;1530953;92;21024;-69
2021/08/28 01:36:38;;;;;;;19.40;13.45;;;;;;;13.39;100.00;98977.97;1535053;92;21579;-69
2021/08/28 01:39:34;;;;;;;18.80;13.40;;;;;;;13.34;100.00;98988.80;1541098;91;21553;-67
2021/08/28 01:42:11;;;;;;;19.65;13.32;;;;;;;13.24;100.00;98985.64;1543960;92;20971;-67
2021/08/28 01:44:38;;;;;;;20.90;14.78;;;;;;;13.19;100.00;98976.81;1545455;93;20971;-67
2021/08/28 01:47:08;;;;;;;24.67;15.90;;;;;;;13.14;100.00;98968.23;1545527;93;20992;-67
2021/08/28 01:49:37;;;;;;;24.80;15.45;;;;;;;13.11;100.00;98958.58;1525123;93;21014;-67
2021/08/28 01:52:17;;;;;;;30.32;15.93;;;;;;;13.08;100.00;98956.70;1545415;93;21164;-67
2021/08/28 01:54:54;;;;;;;22.22;15.53;;;;;;;13.09;100.00;98952.12;1545747;92;20945;-68
2021/08/28 01:58:12;;;;;;;22.90;15.55;;;;;;;13.08;100.00;98945.93;1535465;90;21056;-68
2021/08/28 02:00:48;;;;;;;28.62;15.95;;;;;;;13.11;100.00;98946.45;1580014;89;21616;-68
2021/08/28 02:04:42;;;;;;;21.87;15.95;;;;;;;13.12;100.00;98934.58;1460116;92;21391;-68
2021/08/28 02:12:33;;;;;;;22.95;15.55;;;;;;;13.10;100.00;98953.71;1454088;97;20940;-68
2021/08/28 02:26:40;;;;;;;24.55;18.42;;;;;;;13.08;100.00;98956.70;1379058;102;21187;-67
2021/08/28 02:29:30;;;;;;;26.45;18.00;;;;;;;13.08;100.00;98950.49;1378653;102;21564;-68
2021/08/28 02:39:23;;;;;;;27.65;17.23;;;;;;;13.08;100.00;98949.97;1343543;105;21055;-68
2021/08/28 02:42:49;;;;;;;20.85;14.78;;;;;;;13.11;100.00;98941.06;1331623;104;21589;-68
2021/08/28 02:45:50;;;;;;;26.25;17.75;;;;;;;13.12;100.00;98949.39;1315427;107;21207;-68
2021/08/28 02:49:13;;;;;;;22.13;15.35;;;;;;;13.15;100.00;98950.16;1298073;109;21493;-68
2021/08/28 02:51:42;;;;;;;27.52;17.70;;;;;;;13.17;100.00;98942.05;1333844;106;21202;-68
2021/08/28 02:54:24;;;;;;;23.83;16.07;;;;;;;13.17;100.00;98932.63;1333657;106;21104;-68
2021/08/28 02:57:00;;;;;;;21.93;16.65;;;;;;;13.19;100.00;98937.19;1380301;101;21228;-68
2021/08/28 03:00:05;;;;;;;22.22;15.88;;;;;;;13.17;100.00;98933.97;1409300;100;20965;-68
2021/08/28 03:03:00;;;;;;;20.10;13.72;;;;;;;13.16;100.00;98930.23;1391163;102;21060;-68
2021/08/28 03:06:31;;;;;;;23.27;14.15;;;;;;;13.16;100.00;98918.11;1338844;106;21628;-68
2021/08/28 03:09:33;;;;;;;21.45;14.60;;;;;;;13.17;100.00;98908.92;1288224;110;21123;-68
2021/08/28 03:12:18;;;;;;;18.52;14.43;;;;;;;13.17;100.00;98904.88;1299107;109;21204;-68
2021/08/28 03:17:17;;;;;;;18.00;14.68;;;;;;;13.17;100.00;98904.88;1242968;112;21614;-69
2021/08/28 03:48:40;;;;;;;;;;;;;;;;;;;;;
2021/08/28 03:52:50;;;;;;;20.77;14.87;;;;;;;13.21;100.00;98894.59;1222873;115;21167;-68
2021/08/28 03:56:12;;;;;;;21.85;16.42;;;;;;;13.19;100.00;98898.11;1201621;117;21267;-68
2021/08/28 04:00:19;;;;;;;21.33;15.05;;;;;;;13.22;100.00;98898.08;1236070;114;21220;-68
2021/08/28 04:04:43;;;;;;;20.95;15.50;;;;;;;13.23;100.00;98897.02;1245779;114;21545;-68
2021/08/28 04:07:40;;;;;;;;;;;;;;;;;;;;;
2021/08/28 04:15:14;;;;;;;22.55;17.40;;;;;;;13.26;100.00;98901.82;1203724;117;21141;-68
2021/08/28 04:20:07;;;;;;;;;;;;;;;;;;;;;
2021/08/28 04:28:08;;;;;;;23.22;16.75;;;;;;;13.63;100.00;98926.73;1186907;119;21743;-69
2021/08/28 04:30:50;;;;;;;20.75;13.93;;;;;;;13.76;100.00;98928.47;1206386;117;21712;-68
2021/08/28 04:33:17;;;;;;;18.60;13.03;;;;;;;13.80;100.00;98931.65;1208208;117;21136;-69
2021/08/28 04:35:52;;;;;;;20.08;14.20;;;;;;;13.80;100.00;98932.20;1199556;118;21182;-69
2021/08/28 04:38:19;;;;;;;20.68;13.65;;;;;;;13.79;100.00;98934.10;1204998;117;21126;-69
2021/08/28 04:40:48;;;;;;;;;;;;;;;13.83;100.00;98932.41;1238471;114;21195;-68
2021/08/28 04:43:16;;;;;;;19.77;13.20;;;;;;;13.90;100.00;98929.36;1259693;112;20204;-69
2021/08/28 04:45:56;;;;;;;20.27;14.50;;;;;;;13.92;100.00;98923.93;1241167;115;21155;-69
2021/08/28 04:48:31;;;;;;;19.75;14.83;;;;;;;13.99;100.00;98924.09;1269708;110;21244;-68
2021/08/28 04:50:58;;;;;;;21.25;15.78;;;;;;;14.01;100.00;98927.31;1284318;110;21276;-68
2021/08/28 04:53:25;;;;;;;16.85;11.73;;;;;;;14.03;100.00;98928.63;1322447;107;21540;-68
2021/08/28 04:55:52;;;;;;;14.98;11.28;;;;;;;14.06;100.00;98933.47;1369065;102;21132;-68
2021/08/28 04:58:18;;;;;;;14.68;11.10;;;;;;;14.08;100.00;98930.45;1401217;99;20997;-67
2021/08/28 05:00:47;;;;;;;15.78;12.33;;;;;;;14.08;100.00;98944.73;1412302;101;21208;-68
2021/08/28 05:03:22;;;;;;;17.45;12.45;;;;;;;14.11;100.00;98944.18;1412468;101;21016;-68
2021/08/28 05:05:50;;;;;;;15.58;11.53;;;;;;;14.14;100.00;98942.23;1382722;101;21064;-68
2021/08/28 05:08:16;;;;;;;16.25;13.13;;;;;;;14.14;100.00;98946.29;1415192;101;21117;-68
2021/08/28 05:10:43;;;;;;;15.88;12.15;;;;;;;14.18;100.00;98951.89;1409334;101;21491;-68
2021/08/28 05:13:10;;;;;;;15.55;11.03;;;;;;;14.17;100.00;98946.25;1414985;101;21149;-68
2021/08/28 05:15:38;;;;;;;16.30;11.78;;;;;;;14.19;100.00;98951.37;1415212;101;21080;-68
2021/08/28 05:18:06;;;;;;;;;;;;;;;14.18;100.00;98951.89;1417078;101;20994;-68
2021/08/28 05:20:35;;;;;;;19.82;11.05;;;;;;;14.16;100.00;98955.45;1415190;101;20932;-68
2021/08/28 05:23:01;;;;;;;13.45;9.25;;;;;;;14.17;100.00;98954.34;1490739;96;20976;-67
2021/08/28 05:25:40;;;;;;;13.22;10.95;;;;;;;14.14;100.00;98948.98;1537664;93;21127;-68
2021/08/28 05:28:06;;;;;;;15.80;9.90;;;;;;;14.17;100.00;98950.30;1537410;93;20915;-68
2021/08/28 05:30:33;;;;;;;12.03;9.63;;;;;;;14.18;100.00;98951.09;1537629;93;20919;-68
2021/08/28 05:32:59;;;;;;;6.83;5.55;;;;;;;14.20;100.00;98946.21;1537394;93;21026;-67
2021/08/28 05:35:26;;;;;;;9.53;7.62;;;;;;;14.20;100.00;98935.42;1537449;93;20891;-68
2021/08/28 05:37:58;;;;;;;12.13;7.53;;;;;;;14.21;100.00;98962.13;1517076;93;21122;-67
2021/08/28 05:40:26;;;;;;;7.55;6.22;;;;;;;14.26;100.00;98959.91;1528682;93;20976;-68
2021/08/28 05:42:53;;;;;;;8.28;6.45;;;;;;;14.24;100.00;98964.23;1529151;93;20931;-67
2021/08/28 05:45:20;;;;;;;6.70;5.22;;;;;;;14.26;100.00;98972.84;1529087;93;21008;-68
2021/08/28 05:47:48;;;;;;;4.08;3.60;;;;;;;14.24;100.00;98972.88;1510094;93;20999;-68
2021/08/28 05:50:17;;;;;;;4.40;3.95;;;;;;;14.22;100.00;98967.77;1521416;94;21197;-68
2021/08/28 05:52:45;;;;;;;5.08;4.55;;;;;;;14.12;100.00;98964.66;1521278;94;20914;-68
2021/08/28 05:55:16;;;;;;;5.47;3.62;;;;;;;14.18;100.00;98973.48;1521404;94;20964;-68
2021/08/28 05:57:42;;;;;;;3.87;3.50;;;;;;;14.10;100.00;98979.55;1523389;91;21070;-68
2021/08/28 06:00:10;;;;;;;4.70;3.95;;;;;;;14.10;100.00;98984.94;1550443;92;21102;-67
2021/08/28 06:02:44;;;;;;;5.15;4.65;;;;;;;14.07;100.00;98992.28;1550243;92;21124;-67
2021/08/28 06:05:12;;;;;;;;;;;;;;;14.10;100.00;98988.98;1551992;92;20982;-68
2021/08/28 06:11:26;;;;;;;5.33;4.15;;;;;;;14.09;100.00;98997.64;1525663;91;21069;-69
2021/08/28 06:13:57;;;;;;;10.18;4.20;;;;;;;14.14;100.00;98994.87;1531200;88;21106;-68
2021/08/28 06:16:29;;;;;;;5.03;4.08;;;;;;;14.13;100.00;98990.58;1579541;88;21122;-69
2021/08/28 06:18:59;;;;;;;4.28;3.85;;;;;;;14.21;100.00;98991.81;1590504;88;21018;-68
2021/08/28 06:21:26;;;;;;;4.72;4.08;;;;;;;14.29;100.00;98997.10;1596184;88;21433;-69
2021/08/28 06:23:53;;;;;;;3.90;3.50;;;;;;;14.28;100.00;98994.95;1586998;88;21018;-68
2021/08/28 06:26:24;;;;;;;8.58;3.62;;;;;;;14.30;100.00;99000.05;1572847;90;21580;-69
2021/08/28 06:28:51;;;;;;;4.12;3.72;;;;;;;14.23;100.00;98993.66;1564226;90;21764;-69
2021/08/28 06:31:20;;;;;;;5.03;4.53;;;;;;;14.25;100.00;99011.71;1586879;90;21031;-69
2021/08/28 06:33:46;;;;;;;4.87;4.47;;;;;;;14.33;100.00;99016.48;1583458;90;20989;-69
2021/08/28 06:36:13;;;;;;;5.25;4.53;;;;;;;14.40;100.00;99012.59;1563798;90;21114;-69
2021/08/28 06:38:51;;;;;;;5.35;4.20;;;;;;;14.43;100.00;99022.28;1555794;90;21091;-69
2021/08/28 06:41:36;;;;;;;4.85;3.98;;;;;;;14.39;100.00;99031.25;1563031;90;21757;-68
2021/08/28 06:44:23;;;;;;;3.58;3.22;;;;;;;14.35;100.00;99038.56;1568933;90;21048;-69
2021/08/28 06:47:09;;;;;;;6.13;3.90;;;;;;;14.28;100.00;99030.57;1575217;90;21101;-67
2021/08/28 06:49:53;;;;;;;3.12;2.58;;;;;;;14.24;100.00;99041.16;1575625;90;21211;-68
2021/08/28 06:52:39;;;;;;;4.75;3.65;;;;;;;14.21;100.00;99040.92;1575416;90;21141;-68
2021/08/28 06:55:24;;;;;;;4.20;3.80;;;;;;;14.24;100.00;99047.11;1567829;89;21144;-69
2021/08/28 06:57:51;;;;;;;3.40;3.10;;;;;;;14.31;100.00;99057.80;1584602;89;20995;-68
2021/08/28 07:00:22;;;;;;;3.87;3.58;;;;;;;14.36;100.00;99059.08;1595659;89;21470;-69
2021/08/28 07:03:07;;;;;;;3.77;3.47;;;;;;;14.59;100.00;99071.49;1542605;90;21021;-68
2021/08/28 07:05:34;;;;;;;3.55;2.80;;;;;;;14.82;100.00;99071.17;1539319;93;21196;-68
2021/08/28 07:08:03;;;;;;;7.05;3.40;;;;;;;14.75;100.00;99067.48;1538051;91;21152;-69
2021/08/28 07:10:31;;;;;;;5.87;3.02;;;;;;;14.75;100.00;99079.64;1570362;90;21134;-69
2021/08/28 07:13:00;;;;;;;3.50;2.67;;;;;;;14.75;100.00;99080.19;1539660;91;21036;-69
2021/08/28 07:15:29;;;;;;;3.30;2.98;;;;;;;14.76;100.00;99082.58;1533428;93;21093;-69
2021/08/28 07:17:55;;;;;;;3.10;2.80;;;;;;;14.74;100.00;99088.82;1568765;88;21105;-68
2021/08/28 07:20:22;;;;;;;3.05;2.80;;;;;;;14.81;100.00;99084.97;1585349;90;21160;-68
2021/08/28 07:22:49;;;;;;;9.88;2.58;;;;;;;14.83;100.00;99091.68;1585131;90;21109;-68
2021/08/28 07:25:27;;;;;;;3.45;2.25;;;;;;;14.79;100.00;99093.35;1582454;90;20991;-68
2021/08/28 07:27:54;;;;;;;3.52;2.52;;;;;;;14.60;100.00;99099.30;1585308;90;21009;-68
2021/08/28 07:30:28;;;;;;;2.67;2.20;;;;;;;14.51;100.00;99095.88;1582171;90;21006;-68
2021/08/28 07:32:56;;;;;;;4.55;2.45;;;;;;;14.54;100.00;99100.72;1589398;88;21296;-70
2021/08/28 07:35:22;;;;;;;;;;;;;;;14.51;100.00;99111.28;1586378;89;20971;-69
2021/08/28 07:37:49;;;;;;;2.40;2.20;;;;;;;14.46;100.00;99108.66;1583474;89;20141;-68
2021/08/28 07:40:16;;;;;;;2.20;2.00;;;;;;;14.48;100.00;99114.57;1568662;91;21044;-68
2021/08/28 07:42:45;;;;;;;2.47;2.27;;;;;;;14.37;100.00;99101.17;1569027;91;20949;-68
2021/08/28 07:45:12;;;;;;;3.05;2.08;;;;;;;14.47;100.00;99115.09;1569088;90;21867;-68
2021/08/28 07:47:40;;;;;;;1.92;1.82;;;;;;;14.45;100.00;99121.33;1566176;91;20973;-69
2021/08/28 07:50:08;;;;;;;2.42;2.12;;;;;;;14.52;100.00;99122.33;1569494;90;21014;-69
2021/08/28 07:52:35;;;;;;;3.75;2.62;;;;;;;14.60;100.00;99117.68;1581798;90;21083;-69
2021/08/28 07:55:04;;;;;;;2.30;2.08;;;;;;;14.93;100.00;99123.95;1581726;90;21109;-68
2021/08/28 07:57:32;;;;;;;3.25;1.70;;;;;;;15.10;100.00;99119.38;1581552;90;21050;-69
2021/08/28 07:59:59;;;;;;;3.20;2.12;;;;;;;15.26;100.00;99120.48;1582800;90;21029;-69
2021/08/28 08:02:25;;;;;;;2.27;2.08;;;;;;;15.38;100.00;99125.67;1538424;92;21026;-68
2021/08/28 08:04:52;;;;;;;3.72;2.35;;;;;;;15.40;100.00;99132.94;1553031;90;21196;-68
2021/08/28 08:07:20;;;;;;;;;;;;;;;15.35;100.00;99130.88;1554086;91;21044;-69
2021/08/28 08:10:09;;;;;;;2.58;2.12;;;;;;;15.43;100.00;99134.25;1554890;90;20166;-69
2021/08/28 08:12:55;;;;;;;2.62;2.22;;;;;;;15.53;100.00;99135.98;1571664;90;21461;-69
2021/08/28 08:15:41;;;;;;;2.42;2.00;;;;;;;15.65;100.00;99143.08;1566261;88;20975;-68
2021/08/28 08:18:21;;;;;;;2.05;1.85;;;;;;;15.88;100.00;99145.42;1540692;91;21087;-69
2021/08/28 08:21:29;;;;;;;1.90;1.70;;;;;;;16.12;100.00;99145.78;1552402;91;21094;-69
2021/08/28 08:24:15;;;;;;;3.72;1.65;;;;;;;16.28;100.00;99155.22;1565890;91;21525;-68
2021/08/28 08:27:18;;;;;;;8.73;2.22;;;;;;;16.07;100.00;99152.92;1549189;90;21048;-68
2021/08/28 08:29:56;;;;;;;2.10;1.90;;;;;;;15.95;100.00;99154.48;1575740;90;21139;-68
2021/08/28 08:32:25;;;;;;;2.87;1.85;;;;;;;16.12;100.00;99163.37;1576922;90;21560;-68
2021/08/28 08:34:53;;;;;;;2.15;1.85;;;;;;;16.09;100.00;99164.78;1561064;90;21151;-68
2021/08/28 08:37:20;;;;;;;2.65;1.85;;;;;;;16.01;100.00;99166.28;1577190;89;21808;-68
2021/08/28 08:39:47;;;;;;;1.90;1.80;;;;;;;16.13;100.00;99161.73;1563036;90;21612;-68
2021/08/28 08:42:14;;;;;;;4.53;2.50;;;;;;;16.33;100.00;99167.30;1543691;91;21154;-67
2021/08/28 08:44:41;;;;;;;2.87;2.20;;;;;;;16.62;100.00;99167.55;1553439;92;21088;-68
2021/08/28 08:47:08;;;;;;;2.37;1.60;;;;;;;16.73;100.00;99160.79;1533852;92;20988;-68
2021/08/28 08:49:35;;;;;;;3.83;1.85;;;;;;;17.38;100.00;99185.96;1553616;92;21139;-68
2021/08/28 08:52:08;;;;;;;3.20;2.10;;;;;;;18.04;100.00;99188.97;1553402;91;21075;-70
2021/08/28 08:54:36;;;;;;;4.67;2.10;;;;;;;18.36;100.00;99187.82;1538156;92;21056;-68
2021/08/28 08:57:04;;;;;;;2.12;1.92;;;;;;;18.06;100.00;99186.18;1546940;91;21004;-68
2021/08/28 08:59:31;;;;;;;2.33;1.60;;;;;;;17.76;100.00;99181.77;1549667;90;21059;-68
2021/08/28 09:02:12;;;;;;;2.22;1.80;;;;;;;17.63;100.00;99183.97;1534973;92;21245;-69
2021/08/28 09:05:00;;;;;;;1.80;1.50;;;;;;;17.46;100.00;99188.72;1527457;92;21370;-68
2021/08/28 09:07:27;;;;;;;3.05;1.98;;;;;;;17.52;100.00;99178.57;1555387;91;21098;-69
2021/08/28 09:09:54;;;;;;;2.85;1.92;;;;;;;17.59;100.00;99193.86;1536144;91;21043;-68
2021/08/28 09:12:23;;;;;;;2.95;1.77;;;;;;;17.73;100.00;99186.43;1525606;92;21127;-68
2021/08/28 09:15:00;;;;;;;3.25;1.70;;;;;;;17.94;100.00;99194.11;1526820;92;21288;-68
2021/08/28 09:17:26;;;;;;;2.50;1.98;;;;;;;17.87;100.00;99192.38;1499708;94;21034;-68
2021/08/28 09:19:53;;;;;;;3.65;1.80;;;;;;;17.80;100.00;99202.31;1545140;92;20960;-68
2021/08/28 09:22:32;;;;;;;2.10;1.70;;;;;;;18.03;100.00;99201.75;1545208;92;21454;-68
2021/08/28 09:25:01;;;;;;;2.08;1.87;;;;;;;18.01;100.00;99213.47;1548828;92;21103;-68
2021/08/28 09:27:33;;;;;;;2.85;2.12;;;;;;;18.18;100.00;99199.18;1521201;91;21783;-67
2021/08/28 09:30:01;;;;;;;2.47;2.05;;;;;;;18.20;100.00;99198.28;1550935;91;20961;-67
2021/08/28 09:32:35;;;;;;;2.05;1.85;;;;;;;18.13;100.00;99206.91;1551408;92;20977;-68
2021/08/28 09:35:12;;;;;;;2.87;2.15;;;;;;;17.97;100.00;99211.92;1527806;92;21090;-69
2021/08/28 09:37:38;;;;;;;2.52;2.10;;;;;;;18.05;100.00;99217.14;1527344;92;21147;-68
2021/08/28 09:40:29;;;;;;;2.90;2.42;;;;;;;17.95;100.00;99211.98;1510396;93;21437;-70
2021/08/28 09:43:05;;;;;;;3.80;2.50;;;;;;;17.97;100.00;99206.48;1533203;93;20950;-68
2021/08/28 09:45:33;;;;;;;3.20;2.42;;;;;;;17.85;100.00;99207.61;1533544;92;21061;-70
2021/08/28 09:48:09;;;;;;;3.37;2.25;;;;;;;17.76;100.00;99218.94;1507602;94;21097;-69
2021/08/28 09:50:45;;;;;;;3.70;2.58;;;;;;;17.99;100.00;99215.69;1527113;92;21125;-69
2021/08/28 09:53:21;;;;;;;2.92;2.58;;;;;;;18.04;100.00;99218.27;1527214;94;21109;-68
2021/08/28 09:55:58;;;;;;;6.87;2.40;;;;;;;17.87;100.00;99221.69;1595415;88;21022;-69
2021/08/28 09:58:27;;;;;;;5.10;3.33;;;;;;;17.92;100.00;99213.97;1635238;86;21509;-68
2021/08/28 10:00:55;;;;;;;3.58;3.05;;;;;;;18.26;100.00;99224.22;1654449;85;21048;-69
2021/08/28 10:03:30;;;;;;;3.52;2.55;;;;;;;18.93;100.00;99219.66;1679462;83;21030;-68
2021/08/28 10:05:57;;;;;;;3.47;2.62;;;;;;;19.53;100.00;99222.19;1642303;85;21101;-68
2021/08/28 10:09:24;;;;;;;4.00;2.60;;;;;;;19.73;100.00;99226.20;1676113;85;21449;-68
2021/08/28 10:11:52;;;;;;;4.72;3.20;;;;;;;19.10;100.00;99220.25;1705313;83;21455;-68
2021/08/28 10:14:20;;;;;;;2.95;2.47;;;;;;;18.89;100.00;99220.87;1674352;85;21135;-67
2021/08/28 10:16:48;;;;;;;2.95;2.52;;;;;;;18.94;100.00;99228.08;1679433;84;21353;-67
2021/08/28 10:19:16;;;;;;;6.10;2.87;;;;;;;19.31;100.00;99222.59;1694734;84;21121;-67
2021/08/28 10:22:22;;;;;;;2.50;2.10;;;;;;;19.97;100.00;99228.41;1683052;83;20999;-66
2021/08/28 10:25:35;;;;;;;5.58;2.83;;;;;;;20.34;93.68;99229.58;1690610;83;21046;-67
2021/08/28 10:28:01;;;;;;;3.92;3.42;;;;;;;20.09;93.67;99237.51;1688275;83;21600;-66
2021/08/28 10:30:28;;;;;;;4.30;2.50;;;;;;;20.21;87.72;99238.20;1689303;85;21628;-64
2021/08/28 10:32:55;;;;;;;3.70;3.05;;;;;;;20.20;89.37;99238.52;1689833;85;21760;-66
2021/08/28 10:35:23;;;;;;;4.22;3.25;;;;;;;20.67;86.87;99252.94;1664530;85;21048;-66
2021/08/28 10:37:50;;;;;;;4.43;3.70;;;;;;;20.65;86.14;99257.95;1690057;85;21059;-66
2021/08/28 10:40:30;;;;;;;5.17;3.52;;;;;;;20.08;89.74;99245.42;1674094;83;22078;-66
2021/08/28 10:43:00;;;;;;;5.50;3.70;;;;;;;19.41;93.21;99245.40;1662835;86;20936;-64
2021/08/28 10:45:33;;;;;;;4.95;3.83;;;;;;;19.15;97.88;99249.45;1683969;85;21190;-65
2021/08/28 10:48:29;;;;;;;4.80;4.00;;;;;;;18.98;100.00;99252.14;1602757;89;21028;-66
2021/08/28 10:50:57;;;;;;;8.33;4.40;;;;;;;19.72;95.43;99234.94;1574673;88;20877;-66
2021/08/28 10:53:25;;;;;;;4.70;4.20;;;;;;;20.24;86.85;99236.18;1630317;87;22292;-67
2021/08/28 10:55:59;;;;;;;5.22;3.22;;;;;;;20.38;87.66;99230.50;1606498;89;20900;-67
2021/08/28 10:58:26;;;;;;;3.80;3.30;;;;;;;20.53;85.89;99238.72;1606543;89;21151;-67
2021/08/28 11:04:31;;;;;;;6.65;4.00;;;;;;;20.27;87.49;99249.14;1642344;87;20924;-65
2021/08/28 11:07:27;;;;;;;5.92;3.10;;;;;;;20.53;87.92;99252.36;1503398;94;21081;-65
2021/08/28 11:10:12;;;;;;;5.00;4.08;;;;;;;20.61;90.96;99258.92;1416495;101;21133;-66
2021/08/28 11:12:55;;;;;;;4.15;3.60;;;;;;;21.25;85.11;99262.01;1429717;99;21197;-66
2021/08/28 11:15:38;;;;;;;3.55;3.25;;;;;;;21.57;78.12;99252.31;1465149;96;20921;-66
2021/08/28 11:18:12;;;;;;;4.03;3.40;;;;;;;21.61;80.09;99271.00;1466870;97;21142;-66
2021/08/28 11:20:51;;;;;;;4.35;3.75;;;;;;;20.90;84.52;99262.23;1463850;96;21126;-66
2021/08/28 11:23:19;;;;;;;4.72;3.27;;;;;;;20.69;82.66;99268.41;1464033;97;21070;-67
2021/08/28 11:25:50;;;;;;;3.77;3.45;;;;;;;20.82;87.25;99274.77;1451321;97;21565;-66
2021/08/28 11:28:20;;;;;;;5.62;4.17;;;;;;;20.93;84.54;99272.48;1459026;97;21708;-66
2021/08/28 11:30:52;;;;;;;3.80;3.42;;;;;;;21.26;79.88;99268.48;1464259;97;21130;-67
2021/08/28 11:33:24;;;;;;;3.75;2.85;;;;;;;21.49;75.93;99277.20;1452058;97;21536;-67
2021/08/28 11:35:56;;;;;;;4.55;3.27;;;;;;;21.34;76.32;99277.77;1458200;97;21077;-67
2021/08/28 11:38:52;;;;;;;3.33;2.60;;;;;;;21.67;76.94;99283.87;1442808;97;21547;-66
2021/08/28 11:41:24;;;;;;;5.12;3.65;;;;;;;21.30;76.25;99282.28;1474672;96;21179;-67
2021/08/28 11:43:52;;;;;;;4.45;3.10;;;;;;;20.91;76.34;99281.55;1536724;90;21081;-67
2021/08/28 11:46:32;;;;;;;4.45;3.90;;;;;;;20.76;79.64;99284.27;1722183;81;20996;-67
2021/08/28 11:48:59;;;;;;;3.85;3.55;;;;;;;20.85;78.59;99289.12;1750380;81;21444;-67
2021/08/28 11:51:26;;;;;;;4.40;3.70;;;;;;;21.10;75.81;99290.11;1746614;81;21122;-67
2021/08/28 11:58:13;;;;;;;6.58;4.60;;;;;;;21.03;77.97;99295.86;1753074;80;22097;-67
2021/08/28 12:00:40;;;;;;;4.50;4.10;;;;;;;20.44;81.08;99290.54;1726283;82;20897;-67
2021/08/28 12:03:07;;;;;;;8.58;4.35;;;;;;;20.22;83.06;99300.30;1740324;80;20996;-66
2021/08/28 12:05:35;;;;;;;4.75;4.20;;;;;;;20.71;79.57;99294.00;1742343;81;21709;-64
2021/08/28 12:08:02;;;;;;;7.75;4.42;;;;;;;20.92;77.99;99300.33;1753553;81;21450;-66
2021/08/28 12:10:29;;;;;;;4.92;4.20;;;;;;;20.87;76.01;99287.42;1768026;80;21454;-65
2021/08/28 12:13:00;;;;;;;6.08;4.87;;;;;;;20.91;78.58;99304.73;1752410;80;20944;-65
2021/08/28 12:15:28;;;;;;;6.30;4.37;;;;;;;21.27;76.92;99307.52;1775316;80;20917;-66
2021/08/28 12:17:57;;;;;;;6.62;4.70;;;;;;;21.10;76.20;99308.42;1777452;80;21127;-66
2021/08/28 12:20:29;;;;;;;5.83;5.22;;;;;;;20.90;78.32;99297.70;1754763;81;20977;-66
2021/08/28 12:22:57;;;;;;;6.12;4.67;;;;;;;20.55;80.80;99303.27;1743179;80;20936;-66
2021/08/28 12:25:24;;;;;;;5.60;5.10;;;;;;;20.47;82.25;99305.44;1744989;81;20937;-65
2021/08/28 12:27:52;;;;;;;5.70;5.08;;;;;;;20.30;83.87;99304.36;1740618;81;20926;-64
2021/08/28 12:30:19;;;;;;;;;;;;;;;20.45;83.53;99302.23;1765743;80;21098;-65
2021/08/28 12:32:47;;;;;;;7.05;5.60;;;;;;;20.76;80.88;99295.98;1746181;80;20156;-64
2021/08/28 12:35:13;;;;;;;6.25;5.58;;;;;;;20.41;81.57;99288.47;1761301;80;20818;-65
2021/08/28 12:37:40;;;;;;;6.08;5.47;;;;;;;20.28;81.91;99291.61;1762240;80;20913;-64
2021/08/28 12:40:16;;;;;;;6.62;5.67;;;;;;;20.12;83.48;99301.45;1718837;82;20882;-65
2021/08/28 12:42:45;;;;;;;7.58;6.60;;;;;;;20.40;84.15;99305.94;1723689;81;20949;-66
2021/08/28 12:45:18;;;;;;;6.65;5.95;;;;;;;20.15;84.66;99308.97;1736593;81;20869;-65
2021/08/28 12:47:46;;;;;;;8.40;7.17;;;;;;;19.83;88.44;99311.08;1735060;81;20952;-64
2021/08/28 12:50:14;;;;;;;6.95;6.08;;;;;;;19.81;91.52;99320.13;1731851;82;20877;-66
2021/08/28 12:52:47;;;;;;;8.93;7.72;;;;;;;19.66;91.88;99319.22;1696332;84;21499;-66
2021/08/28 12:55:33;;;;;;;8.38;6.95;;;;;;;19.36;91.82;99317.67;1725437;81;21110;-65
2021/08/28 12:58:09;;;;;;;6.45;5.67;;;;;;;19.50;90.25;99322.98;1732419;81;21652;-65
2021/08/28 13:00:41;;;;;;;6.62;6.03;;;;;;;19.96;90.57;99307.94;1713245;81;21052;-63
2021/08/28 13:03:29;;;;;;;7.53;6.72;;;;;;;20.04;87.37;99296.79;1699929;84;20997;-65
2021/08/28 13:05:55;;;;;;;6.45;5.85;;;;;;;20.04;87.37;99296.79;1699462;83;21550;-64
2021/08/28 13:11:31;;;;;;;5.28;4.78;;;;;;;20.38;82.06;99301.94;1705270;83;20996;-64
2021/08/28 13:18:11;;;;;;;4.95;4.20;;;;;;;20.23;82.79;99310.86;1696688;82;21000;-61
2021/08/28 13:20:43;;;;;;;6.15;4.08;;;;;;;19.90;83.06;99314.13;1656809;84;21469;-63
2021/08/28 13:23:29;;;;;;;4.10;3.70;;;;;;;19.72;83.31;99313.91;1666573;84;21129;-65
2021/08/28 13:26:03;;;;;;;3.50;3.02;;;;;;;19.91;82.83;99304.02;1668494;85;20957;-64
2021/08/28 13:28:44;;;;;;;6.50;3.62;;;;;;;19.91;82.83;99304.02;1705259;84;21441;-65
2021/08/28 13:31:22;;;;;;;5.33;3.72;;;;;;;20.85;77.38;99304.13;1695972;83;21401;-65
2021/08/28 13:33:59;;;;;;;4.87;3.00;;;;;;;20.85;77.38;99304.13;1666861;86;20988;-65
2021/08/28 13:36:28;;;;;;;3.20;2.90;;;;;;;20.49;79.75;99320.91;1680255;84;21072;-63
2021/08/28 13:38:56;;;;;;;6.95;3.17;;;;;;;20.48;78.04;99312.48;1694533;84;21016;-64
2021/08/28 13:41:22;;;;;;;3.92;3.00;;;;;;;20.69;77.89;99317.50;1689461;84;21023;-65